sensor_id;sensor_type;location;lat;lon;timestamp;pressure;altitude;pressure_sealevel;temperature;humidity
73383;BME280;61600;48.126;11.542;2023-04-24T00:01:16;94740.66;;;13.66;70.15
73383;BME280;61600;48.126;11.542;2023-04-24T00:03:42;94733.75;;;13.60;70.34
73383;BME280;61600;48.126;11.542;2023-04-24T00:06:08;94728.38;;;13.81;70.57
73383;BME280;61600;48.126;11.542;2023-04-24T00:08:35;94732.69;;;13.90;70.30
73383;BME280;61600;48.126;11.542;2023-04-24T00:11:01;94726.88;;;13.54;71.25
73383;BME280;61600;48.126;11.542;2023-04-24T00:13:27;94732.59;;;13.70;70.28
73383;BME280;61600;48.126;11.542;2023-04-24T00:15:55;94720.78;;;13.48;69.93
73383;BME280;61600;48.126;11.542;2023-04-24T00:18:21;94724.97;;;13.46;70.97
73383;BME280;61600;48.126;11.542;2023-04-24T00:20:46;94723.66;;;13.61;70.32
73383;BME280;61600;48.126;11.542;2023-04-24T00:23:12;94731.66;;;13.66;69.88
73383;BME280;61600;48.126;11.542;2023-04-24T00:25:39;94730.22;;;13.60;69.63
73383;BME280;61600;48.126;11.542;2023-04-24T00:28:05;94723.34;;;13.54;69.69
73383;BME280;61600;48.126;11.542;2023-04-24T00:30:31;94722.19;;;13.55;69.22
73383;BME280;61600;48.126;11.542;2023-04-24T00:32:57;94723.03;;;13.46;69.64
73383;BME280;61600;48.126;11.542;2023-04-24T00:35:23;94720.16;;;13.43;69.94
73383;BME280;61600;48.126;11.542;2023-04-24T00:37:49;94717.78;;;13.24;69.79
73383;BME280;61600;48.126;11.542;2023-04-24T00:40:16;94718.59;;;13.16;69.73
73383;BME280;61600;48.126;11.542;2023-04-24T00:42:43;94722.31;;;13.12;69.70
73383;BME280;61600;48.126;11.542;2023-04-24T00:45:09;94721.97;;;13.13;70.06
73383;BME280;61600;48.126;11.542;2023-04-24T00:47:35;94715.25;;;13.19;69.62
73383;BME280;61600;48.126;11.542;2023-04-24T00:50:03;94712.97;;;12.95;69.97
73383;BME280;61600;48.126;11.542;2023-04-24T00:52:29;94718.09;;;13.06;69.72
73383;BME280;61600;48.126;11.542;2023-04-24T00:54:56;94715.38;;;13.06;69.64
73383;BME280;61600;48.126;11.542;2023-04-24T00:57:22;94713.44;;;13.06;69.38
73383;BME280;61600;48.126;11.542;2023-04-24T00:59:49;94717.66;;;13.12;69.31
73383;BME280;61600;48.126;11.542;2023-04-24T01:02:15;94721.66;;;12.97;69.80
73383;BME280;61600;48.126;11.542;2023-04-24T01:04:41;94717.16;;;13.19;69.30
73383;BME280;61600;48.126;11.542;2023-04-24T01:07:08;94724.19;;;12.42;70.77
73383;BME280;61600;48.126;11.542;2023-04-24T01:09:40;94708.00;;;12.89;70.43
73383;BME280;61600;48.126;11.542;2023-04-24T01:12:07;94714.09;;;13.03;69.76
73383;BME280;61600;48.126;11.542;2023-04-24T01:14:33;94713.31;;;12.85;69.51
73383;BME280;61600;48.126;11.542;2023-04-24T01:16:59;94713.16;;;12.82;69.30
73383;BME280;61600;48.126;11.542;2023-04-24T01:19:25;94709.63;;;12.90;68.62
73383;BME280;61600;48.126;11.542;2023-04-24T01:24:45;94701.59;;;12.93;68.62
73383;BME280;61600;48.126;11.542;2023-04-24T01:27:11;94707.03;;;13.02;67.84
73383;BME280;61600;48.126;11.542;2023-04-24T01:29:37;94701.75;;;12.97;67.94
73383;BME280;61600;48.126;11.542;2023-04-24T01:32:04;94707.50;;;13.04;68.27
73383;BME280;61600;48.126;11.542;2023-04-24T01:34:30;94699.50;;;12.90;67.96
73383;BME280;61600;48.126;11.542;2023-04-24T01:36:56;94700.13;;;12.96;67.06
73383;BME280;61600;48.126;11.542;2023-04-24T01:39:22;94699.34;;;12.78;67.77
73383;BME280;61600;48.126;11.542;2023-04-24T01:41:51;94687.31;;;12.79;67.60
73383;BME280;61600;48.126;11.542;2023-04-24T01:44:18;94701.75;;;12.80;67.93
73383;BME280;61600;48.126;11.542;2023-04-24T01:46:44;94701.28;;;12.86;67.62
73383;BME280;61600;48.126;11.542;2023-04-24T01:49:10;94703.19;;;12.77;67.97
73383;BME280;61600;48.126;11.542;2023-04-24T01:51:37;94706.38;;;12.88;67.73
73383;BME280;61600;48.126;11.542;2023-04-24T01:54:02;94704.13;;;12.98;67.41
73383;BME280;61600;48.126;11.542;2023-04-24T01:56:33;94701.91;;;12.75;67.66
73383;BME280;61600;48.126;11.542;2023-04-24T01:59:02;94695.81;;;12.69;67.33
73383;BME280;61600;48.126;11.542;2023-04-24T02:01:33;94698.22;;;12.53;67.93
73383;BME280;61600;48.126;11.542;2023-04-24T02:04:00;94704.97;;;12.73;67.33
73383;BME280;61600;48.126;11.542;2023-04-24T02:06:26;94701.09;;;12.74;67.02
73383;BME280;61600;48.126;11.542;2023-04-24T02:08:51;94700.13;;;12.70;67.63
73383;BME280;61600;48.126;11.542;2023-04-24T02:11:17;94708.19;;;12.58;67.63
73383;BME280;61600;48.126;11.542;2023-04-24T02:13:44;94704.94;;;12.56;67.92
73383;BME280;61600;48.126;11.542;2023-04-24T02:16:10;94706.22;;;12.33;68.19
73383;BME280;61600;48.126;11.542;2023-04-24T02:18:35;94700.47;;;12.43;67.77
73383;BME280;61600;48.126;11.542;2023-04-24T02:21:01;94702.22;;;12.30;68.18
73383;BME280;61600;48.126;11.542;2023-04-24T02:23:27;94697.56;;;12.57;67.68
73383;BME280;61600;48.126;11.542;2023-04-24T02:25:53;94693.09;;;12.69;67.50
73383;BME280;61600;48.126;11.542;2023-04-24T02:28:19;94696.63;;;12.61;67.51
73383;BME280;61600;48.126;11.542;2023-04-24T02:30:45;94695.34;;;12.59;67.89
73383;BME280;61600;48.126;11.542;2023-04-24T02:33:11;94699.81;;;12.46;67.62
73383;BME280;61600;48.126;11.542;2023-04-24T02:35:37;94703.03;;;12.39;67.74
73383;BME280;61600;48.126;11.542;2023-04-24T02:38:03;94703.84;;;12.40;67.35
73383;BME280;61600;48.126;11.542;2023-04-24T02:40:29;94703.34;;;12.29;67.65
73383;BME280;61600;48.126;11.542;2023-04-24T02:42:55;94690.69;;;12.59;67.67
73383;BME280;61600;48.126;11.542;2023-04-24T02:45:21;94701.59;;;12.68;67.09
73383;BME280;61600;48.126;11.542;2023-04-24T02:47:46;94696.31;;;12.80;65.82
73383;BME280;61600;48.126;11.542;2023-04-24T02:50:12;94688.44;;;12.52;67.57
73383;BME280;61600;48.126;11.542;2023-04-24T02:52:38;94694.06;;;12.65;67.75
73383;BME280;61600;48.126;11.542;2023-04-24T02:55:04;94697.44;;;12.62;67.53
73383;BME280;61600;48.126;11.542;2023-04-24T02:57:30;94698.72;;;12.73;67.44
73383;BME280;61600;48.126;11.542;2023-04-24T02:59:56;94701.13;;;12.66;67.18
73383;BME280;61600;48.126;11.542;2023-04-24T03:02:22;94700.31;;;12.74;67.37
73383;BME280;61600;48.126;11.542;2023-04-24T03:04:47;94699.97;;;12.67;67.46
73383;BME280;61600;48.126;11.542;2023-04-24T03:07:14;94700.78;;;12.50;68.02
73383;BME280;61600;48.126;11.542;2023-04-24T03:09:40;94692.78;;;12.53;67.95
73383;BME280;61600;48.126;11.542;2023-04-24T03:12:06;94695.34;;;12.50;68.30
73383;BME280;61600;48.126;11.542;2023-04-24T03:14:32;94704.78;;;12.52;68.29
73383;BME280;61600;48.126;11.542;2023-04-24T03:16:58;94696.13;;;12.33;68.91
73383;BME280;61600;48.126;11.542;2023-04-24T03:19:24;94709.06;;;12.11;69.71
73383;BME280;61600;48.126;11.542;2023-04-24T03:21:49;94709.13;;;12.36;69.79
73383;BME280;61600;48.126;11.542;2023-04-24T03:24:15;94703.84;;;12.40;69.29
73383;BME280;61600;48.126;11.542;2023-04-24T03:26:41;94707.31;;;12.06;70.25
73383;BME280;61600;48.126;11.542;2023-04-24T03:29:07;94704.75;;;12.10;70.61
73383;BME280;61600;48.126;11.542;2023-04-24T03:31:33;94693.69;;;12.15;70.22
73383;BME280;61600;48.126;11.542;2023-04-24T03:33:58;94708.97;;;12.24;70.39
73383;BME280;61600;48.126;11.542;2023-04-24T03:36:24;94708.56;;;12.00;70.80
73383;BME280;61600;48.126;11.542;2023-04-24T03:38:49;94704.72;;;12.01;71.16
73383;BME280;61600;48.126;11.542;2023-04-24T03:41:15;94711.78;;;12.11;71.34
73383;BME280;61600;48.126;11.542;2023-04-24T03:43:41;94711.75;;;11.85;71.95
73383;BME280;61600;48.126;11.542;2023-04-24T03:46:06;94702.16;;;12.05;71.71
73383;BME280;61600;48.126;11.542;2023-04-24T03:48:35;94702.16;;;12.05;72.21
73383;BME280;61600;48.126;11.542;2023-04-24T03:51:00;94706.81;;;12.04;71.68
73383;BME280;61600;48.126;11.542;2023-04-24T03:53:26;94691.47;;;12.17;71.27
73383;BME280;61600;48.126;11.542;2023-04-24T03:55:53;94692.13;;;12.31;70.94
73383;BME280;61600;48.126;11.542;2023-04-24T03:58:18;94690.34;;;12.43;70.81
73383;BME280;61600;48.126;11.542;2023-04-24T04:00:44;94682.19;;;12.35;71.06
73383;BME280;61600;48.126;11.542;2023-04-24T04:03:11;94689.22;;;12.36;70.74
73383;BME280;61600;48.126;11.542;2023-04-24T04:05:38;94686.97;;;12.21;70.71
73383;BME280;61600;48.126;11.542;2023-04-24T04:08:04;94688.09;;;12.28;70.58
73383;BME280;61600;48.126;11.542;2023-04-24T04:10:30;94683.63;;;12.24;70.59
73383;BME280;61600;48.126;11.542;2023-04-24T04:12:56;94679.94;;;12.37;70.63
73383;BME280;61600;48.126;11.542;2023-04-24T04:15:22;94683.13;;;12.30;70.50
73383;BME280;61600;48.126;11.542;2023-04-24T04:17:47;94682.66;;;12.45;70.54
73383;BME280;61600;48.126;11.542;2023-04-24T04:20:13;94684.75;;;12.40;70.37
73383;BME280;61600;48.126;11.542;2023-04-24T04:22:39;94680.75;;;12.37;70.21
73383;BME280;61600;48.126;11.542;2023-04-24T04:25:05;94682.97;;;12.35;70.23
73383;BME280;61600;48.126;11.542;2023-04-24T04:27:32;94687.31;;;12.45;69.71
73383;BME280;61600;48.126;11.542;2023-04-24T04:30:01;94707.19;;;12.37;70.38
73383;BME280;61600;48.126;11.542;2023-04-24T04:32:33;94705.59;;;12.36;70.29
73383;BME280;61600;48.126;11.542;2023-04-24T04:35:00;94694.84;;;12.39;69.48
73383;BME280;61600;48.126;11.542;2023-04-24T04:37:29;94698.53;;;12.26;70.11
73383;BME280;61600;48.126;11.542;2023-04-24T04:39:55;94708.00;;;12.20;69.86
73383;BME280;61600;48.126;11.542;2023-04-24T04:42:21;94703.03;;;12.39;69.58
73383;BME280;61600;48.126;11.542;2023-04-24T04:44:47;94710.22;;;12.18;69.48
73383;BME280;61600;48.126;11.542;2023-04-24T04:47:12;94718.69;;;12.08;70.36
73383;BME280;61600;48.126;11.542;2023-04-24T04:49:38;94710.38;;;12.13;69.84
73383;BME280;61600;48.126;11.542;2023-04-24T04:52:04;94714.88;;;12.26;69.43
73383;BME280;61600;48.126;11.542;2023-04-24T04:54:30;94719.81;;;12.07;70.39
73383;BME280;61600;48.126;11.542;2023-04-24T04:56:56;94719.38;;;12.14;70.00
73383;BME280;61600;48.126;11.542;2023-04-24T04:59:22;94716.03;;;12.34;69.12
73383;BME280;61600;48.126;11.542;2023-04-24T05:01:48;94729.13;;;12.15;69.46
73383;BME280;61600;48.126;11.542;2023-04-24T05:04:14;94719.63;;;12.03;69.80
73383;BME280;61600;48.126;11.542;2023-04-24T05:06:40;94721.13;;;12.10;69.76
73383;BME280;61600;48.126;11.542;2023-04-24T05:09:06;94728.47;;;12.18;69.64
73383;BME280;61600;48.126;11.542;2023-04-24T05:11:33;94735.56;;;12.19;69.22
73383;BME280;61600;48.126;11.542;2023-04-24T05:13:58;94730.78;;;12.24;69.46
73383;BME280;61600;48.126;11.542;2023-04-24T05:16:24;94730.91;;;12.19;69.47
73383;BME280;61600;48.126;11.542;2023-04-24T05:18:51;94735.91;;;12.34;68.88
73383;BME280;61600;48.126;11.542;2023-04-24T05:21:17;94730.47;;;12.34;68.34
73383;BME280;61600;48.126;11.542;2023-04-24T05:23:43;94741.38;;;12.34;68.79
73383;BME280;61600;48.126;11.542;2023-04-24T05:26:08;94744.13;;;12.51;67.97
73383;BME280;61600;48.126;11.542;2023-04-24T05:28:35;94749.69;;;12.29;68.49
73383;BME280;61600;48.126;11.542;2023-04-24T05:31:02;94741.00;;;12.19;68.84
73383;BME280;61600;48.126;11.542;2023-04-24T05:33:28;94740.53;;;12.25;68.17
73383;BME280;61600;48.126;11.542;2023-04-24T05:35:54;94745.34;;;12.28;68.32
73383;BME280;61600;48.126;11.542;2023-04-24T05:38:20;94735.09;;;12.17;68.44
73383;BME280;61600;48.126;11.542;2023-04-24T05:40:46;94738.75;;;12.12;68.41
73383;BME280;61600;48.126;11.542;2023-04-24T05:43:12;94738.66;;;12.34;68.05
73383;BME280;61600;48.126;11.542;2023-04-24T05:45:39;94735.09;;;12.17;68.18
73383;BME280;61600;48.126;11.542;2023-04-24T05:48:05;94745.69;;;12.27;67.91
73383;BME280;61600;48.126;11.542;2023-04-24T05:50:31;94732.97;;;12.05;67.71
73383;BME280;61600;48.126;11.542;2023-04-24T05:52:57;94741.97;;;12.23;67.99
73383;BME280;61600;48.126;11.542;2023-04-24T05:55:27;94737.63;;;12.22;67.96
73383;BME280;61600;48.126;11.542;2023-04-24T05:57:53;94751.44;;;12.25;67.59
73383;BME280;61600;48.126;11.542;2023-04-24T06:00:19;94748.59;;;12.47;67.37
73383;BME280;61600;48.126;11.542;2023-04-24T06:02:46;94753.25;;;12.47;67.03
73383;BME280;61600;48.126;11.542;2023-04-24T06:05:11;94751.13;;;12.35;67.13
73383;BME280;61600;48.126;11.542;2023-04-24T06:07:37;94759.34;;;12.52;66.76
73383;BME280;61600;48.126;11.542;2023-04-24T06:10:03;94754.22;;;12.51;66.69
73383;BME280;61600;48.126;11.542;2023-04-24T06:12:29;94757.91;;;12.46;66.67
73383;BME280;61600;48.126;11.542;2023-04-24T06:14:56;94756.94;;;12.60;66.78
73383;BME280;61600;48.126;11.542;2023-04-24T06:17:21;94751.69;;;12.72;66.22
73383;BME280;61600;48.126;11.542;2023-04-24T06:19:47;94756.34;;;12.80;66.03
73383;BME280;61600;48.126;11.542;2023-04-24T06:22:13;94752.97;;;12.83;66.10
73383;BME280;61600;48.126;11.542;2023-04-24T06:24:41;94745.75;;;13.13;65.19
73383;BME280;61600;48.126;11.542;2023-04-24T06:27:07;94751.53;;;12.94;65.36
73383;BME280;61600;48.126;11.542;2023-04-24T06:29:33;94757.75;;;12.60;65.85
73383;BME280;61600;48.126;11.542;2023-04-24T06:31:59;94752.97;;;12.83;65.18
73383;BME280;61600;48.126;11.542;2023-04-24T06:34:25;94753.44;;;12.68;65.48
73383;BME280;61600;48.126;11.542;2023-04-24T06:36:51;94755.38;;;13.10;65.02
73383;BME280;61600;48.126;11.542;2023-04-24T06:39:17;94758.59;;;13.21;64.36
73383;BME280;61600;48.126;11.542;2023-04-24T06:41:43;94754.41;;;13.32;63.66
73383;BME280;61600;48.126;11.542;2023-04-24T06:44:09;94762.13;;;13.21;64.42
73383;BME280;61600;48.126;11.542;2023-04-24T06:46:35;94763.91;;;13.17;63.89
73383;BME280;61600;48.126;11.542;2023-04-24T06:49:00;94767.59;;;13.13;64.33
73383;BME280;61600;48.126;11.542;2023-04-24T06:51:26;94779.94;;;13.01;64.46
73383;BME280;61600;48.126;11.542;2023-04-24T06:53:53;94774.47;;;13.27;64.16
73383;BME280;61600;48.126;11.542;2023-04-24T06:56:19;94776.41;;;13.27;63.28
73383;BME280;61600;48.126;11.542;2023-04-24T06:58:46;94761.75;;;13.48;63.10
73383;BME280;61600;48.126;11.542;2023-04-24T07:01:12;94776.22;;;13.49;63.17
73383;BME280;61600;48.126;11.542;2023-04-24T07:03:37;94764.72;;;13.26;63.18
73383;BME280;61600;48.126;11.542;2023-04-24T07:06:04;94769.94;;;13.48;62.72
73383;BME280;61600;48.126;11.542;2023-04-24T07:08:30;94767.69;;;13.59;62.71
73383;BME280;61600;48.126;11.542;2023-04-24T07:10:56;94767.66;;;13.68;62.29
73383;BME280;61600;48.126;11.542;2023-04-24T07:13:23;94770.34;;;13.85;61.66
73383;BME280;61600;48.126;11.542;2023-04-24T07:15:49;94777.00;;;13.58;61.75
73383;BME280;61600;48.126;11.542;2023-04-24T07:18:16;94780.28;;;13.26;62.10
73383;BME280;61600;48.126;11.542;2023-04-24T07:20:42;94777.38;;;13.39;62.30
73383;BME280;61600;48.126;11.542;2023-04-24T07:23:08;94782.53;;;13.32;62.32
73383;BME280;61600;48.126;11.542;2023-04-24T07:25:34;94789.72;;;13.54;61.95
73383;BME280;61600;48.126;11.542;2023-04-24T07:28:00;94793.38;;;13.58;61.36
73383;BME280;61600;48.126;11.542;2023-04-24T07:30:25;94791.97;;;13.52;61.58
73383;BME280;61600;48.126;11.542;2023-04-24T07:32:51;94789.19;;;13.78;61.04
73383;BME280;61600;48.126;11.542;2023-04-24T07:35:17;94797.06;;;13.71;60.54
73383;BME280;61600;48.126;11.542;2023-04-24T07:37:43;94795.75;;;13.77;60.73
73383;BME280;61600;48.126;11.542;2023-04-24T07:40:14;94814.16;;;12.90;62.00
73383;BME280;61600;48.126;11.542;2023-04-24T07:42:40;94807.25;;;13.36;61.44
73383;BME280;61600;48.126;11.542;2023-04-24T07:45:06;94805.47;;;13.48;61.43
73383;BME280;61600;48.126;11.542;2023-04-24T07:47:34;94803.56;;;13.40;61.71
73383;BME280;61600;48.126;11.542;2023-04-24T07:50:00;94807.19;;;13.70;61.14
73383;BME280;61600;48.126;11.542;2023-04-24T07:52:26;94814.91;;;13.77;60.72
73383;BME280;61600;48.126;11.542;2023-04-24T07:54:52;94814.94;;;13.60;60.25
73383;BME280;61600;48.126;11.542;2023-04-24T07:57:24;94806.25;;;13.66;59.84
73383;BME280;61600;48.126;11.542;2023-04-24T07:59:50;94820.16;;;13.90;59.60
73383;BME280;61600;48.126;11.542;2023-04-24T08:02:17;94810.22;;;13.86;59.73
73383;BME280;61600;48.126;11.542;2023-04-24T08:04:43;94821.06;;;13.39;60.77
73383;BME280;61600;48.126;11.542;2023-04-24T08:07:08;94825.03;;;13.76;59.27
73383;BME280;61600;48.126;11.542;2023-04-24T08:09:34;94816.66;;;14.28;58.48
73383;BME280;61600;48.126;11.542;2023-04-24T08:12:00;94814.25;;;14.35;58.44
73383;BME280;61600;48.126;11.542;2023-04-24T08:14:26;94807.81;;;13.76;59.36
73383;BME280;61600;48.126;11.542;2023-04-24T08:16:54;94810.47;;;14.10;59.17
73383;BME280;61600;48.126;11.542;2023-04-24T08:19:21;94827.84;;;13.97;58.89
73383;BME280;61600;48.126;11.542;2023-04-24T08:21:47;94823.59;;;13.79;59.28
73383;BME280;61600;48.126;11.542;2023-04-24T08:24:13;94819.41;;;13.81;59.35
73383;BME280;61600;48.126;11.542;2023-04-24T08:26:39;94825.38;;;13.66;60.39
73383;BME280;61600;48.126;11.542;2023-04-24T08:29:05;94831.03;;;13.35;61.59
73383;BME280;61600;48.126;11.542;2023-04-24T08:31:34;94831.81;;;13.53;61.98
73383;BME280;61600;48.126;11.542;2023-04-24T08:34:00;94830.25;;;13.43;62.07
73383;BME280;61600;48.126;11.542;2023-04-24T08:36:26;94844.53;;;13.58;62.35
73383;BME280;61600;48.126;11.542;2023-04-24T08:38:52;94855.09;;;13.08;66.56
73383;BME280;61600;48.126;11.542;2023-04-24T08:41:18;94856.41;;;13.10;67.32
73383;BME280;61600;48.126;11.542;2023-04-24T08:43:47;94868.59;;;13.13;67.85
73383;BME280;61600;48.126;11.542;2023-04-24T08:46:15;94880.19;;;12.53;62.70
73383;BME280;61600;48.126;11.542;2023-04-24T08:48:41;94864.31;;;12.64;62.68
73383;BME280;61600;48.126;11.542;2023-04-24T08:51:08;94869.94;;;12.59;62.03
73383;BME280;61600;48.126;11.542;2023-04-24T08:53:35;94878.16;;;12.76;61.05
73383;BME280;61600;48.126;11.542;2023-04-24T08:56:02;94883.66;;;12.36;60.82
73383;BME280;61600;48.126;11.542;2023-04-24T08:58:28;94887.13;;;12.59;60.56
73383;BME280;61600;48.126;11.542;2023-04-24T09:00:55;94898.78;;;12.12;60.98
73383;BME280;61600;48.126;11.542;2023-04-24T09:03:21;94888.81;;;12.38;60.23
73383;BME280;61600;48.126;11.542;2023-04-24T09:05:48;94895.56;;;12.49;59.32
73383;BME280;61600;48.126;11.542;2023-04-24T09:08:19;94893.34;;;12.60;59.02
73383;BME280;61600;48.126;11.542;2023-04-24T09:10:45;94889.94;;;12.45;59.49
73383;BME280;61600;48.126;11.542;2023-04-24T09:13:12;94897.63;;;12.43;59.05
73383;BME280;61600;48.126;11.542;2023-04-24T09:15:39;94888.75;;;12.69;60.17
73383;BME280;61600;48.126;11.542;2023-04-24T09:18:05;94883.47;;;12.81;58.94
73383;BME280;61600;48.126;11.542;2023-04-24T09:20:32;94883.25;;;13.17;58.30
73383;BME280;61600;48.126;11.542;2023-04-24T09:22:58;94890.00;;;13.19;57.31
73383;BME280;61600;48.126;11.542;2023-04-24T09:25:35;94894.16;;;13.34;57.63
73383;BME280;61600;48.126;11.542;2023-04-24T09:28:04;94892.88;;;13.48;58.60
73383;BME280;61600;48.126;11.542;2023-04-24T09:30:35;94890.13;;;13.83;56.76
73383;BME280;61600;48.126;11.542;2023-04-24T09:33:12;94891.28;;;13.82;55.60
73383;BME280;61600;48.126;11.542;2023-04-24T09:35:51;94893.31;;;14.02;54.59
73383;BME280;61600;48.126;11.542;2023-04-24T09:38:17;94883.69;;;13.96;55.80
73383;BME280;61600;48.126;11.542;2023-04-24T09:40:43;94890.31;;;13.52;54.94
73383;BME280;61600;48.126;11.542;2023-04-24T09:43:12;94879.72;;;13.59;54.58
73383;BME280;61600;48.126;11.542;2023-04-24T09:45:39;94881.63;;;13.59;54.73
73383;BME280;61600;48.126;11.542;2023-04-24T09:48:08;94889.31;;;13.99;53.81
73383;BME280;61600;48.126;11.542;2023-04-24T09:50:35;94880.88;;;14.22;53.72
73383;BME280;61600;48.126;11.542;2023-04-24T09:53:02;94885.72;;;14.08;53.80
73383;BME280;61600;48.126;11.542;2023-04-24T09:55:29;94890.28;;;13.86;54.80
73383;BME280;61600;48.126;11.542;2023-04-24T09:57:57;94873.06;;;14.03;55.23
73383;BME280;61600;48.126;11.542;2023-04-24T10:00:28;94886.69;;;14.20;54.47
73383;BME280;61600;48.126;11.542;2023-04-24T10:03:04;94873.34;;;14.57;54.02
73383;BME280;61600;48.126;11.542;2023-04-24T10:05:35;94870.34;;;14.49;54.31
73383;BME280;61600;48.126;11.542;2023-04-24T10:08:09;94876.59;;;14.59;53.48
73383;BME280;61600;48.126;11.542;2023-04-24T10:10:39;94869.53;;;14.87;53.65
73383;BME280;61600;48.126;11.542;2023-04-24T10:13:08;94871.63;;;14.81;52.09
73383;BME280;61600;48.126;11.542;2023-04-24T10:15:34;94875.25;;;14.65;53.08
73383;BME280;61600;48.126;11.542;2023-04-24T10:18:01;94881.63;;;14.48;53.19
73383;BME280;61600;48.126;11.542;2023-04-24T10:20:29;94872.06;;;14.63;52.99
73383;BME280;61600;48.126;11.542;2023-04-24T10:22:57;94880.41;;;14.95;52.40
73383;BME280;61600;48.126;11.542;2023-04-24T10:25:26;94869.50;;;15.16;51.66
73383;BME280;61600;48.126;11.542;2023-04-24T10:27:52;94858.31;;;14.71;52.32
73383;BME280;61600;48.126;11.542;2023-04-24T10:30:19;94865.06;;;15.03;51.67
73383;BME280;61600;48.126;11.542;2023-04-24T10:32:45;94861.59;;;15.35;51.51
73383;BME280;61600;48.126;11.542;2023-04-24T10:35:13;94855.94;;;15.20;51.31
73383;BME280;61600;48.126;11.542;2023-04-24T10:37:51;94859.72;;;15.27;51.80
73383;BME280;61600;48.126;11.542;2023-04-24T10:40:19;94863.16;;;14.36;52.89
73383;BME280;61600;48.126;11.542;2023-04-24T10:42:51;94864.84;;;14.49;53.34
73383;BME280;61600;48.126;11.542;2023-04-24T10:45:20;94867.63;;;14.32;54.44
73383;BME280;61600;48.126;11.542;2023-04-24T10:48:05;94875.69;;;14.46;54.28
73383;BME280;61600;48.126;11.542;2023-04-24T10:50:52;94950.94;;;13.71;56.67
73383;BME280;61600;48.126;11.542;2023-04-24T10:53:23;94939.75;;;11.98;65.59
73383;BME280;61600;48.126;11.542;2023-04-24T10:55:57;94951.53;;;11.13;69.05
73383;BME280;61600;48.126;11.542;2023-04-24T10:58:23;94939.22;;;11.16;70.50
73383;BME280;61600;48.126;11.542;2023-04-24T11:00:57;94920.34;;;11.19;69.80
73383;BME280;61600;48.126;11.542;2023-04-24T11:03:31;94903.38;;;11.58;69.50
73383;BME280;61600;48.126;11.542;2023-04-24T11:08:43;94903.28;;;12.16;67.56
73383;BME280;61600;48.126;11.542;2023-04-24T11:11:14;94905.34;;;12.11;64.60
73383;BME280;61600;48.126;11.542;2023-04-24T11:16:35;94890.84;;;12.72;65.81
73383;BME280;61600;48.126;11.542;2023-04-24T11:21:45;94896.41;;;13.23;61.55
73383;BME280;61600;48.126;11.542;2023-04-24T11:24:26;94889.50;;;13.17;62.27
73383;BME280;61600;48.126;11.542;2023-04-24T11:29:24;94900.91;;;13.28;59.56
73383;BME280;61600;48.126;11.542;2023-04-24T11:32:17;94894.81;;;13.31;59.25
73383;BME280;61600;48.126;11.542;2023-04-24T11:34:46;94896.53;;;14.04;59.50
73383;BME280;61600;48.126;11.542;2023-04-24T11:37:13;94894.34;;;14.53;58.36
73383;BME280;61600;48.126;11.542;2023-04-24T11:39:38;94883.84;;;14.55;56.64
73383;BME280;61600;48.126;11.542;2023-04-24T11:42:04;94896.72;;;14.54;57.24
73383;BME280;61600;48.126;11.542;2023-04-24T11:44:34;94892.53;;;14.57;57.44
73383;BME280;61600;48.126;11.542;2023-04-24T11:47:00;94897.94;;;14.74;57.96
73383;BME280;61600;48.126;11.542;2023-04-24T11:49:26;94895.94;;;14.83;56.96
73383;BME280;61600;48.126;11.542;2023-04-24T11:51:55;94894.19;;;14.40;56.40
73383;BME280;61600;48.126;11.542;2023-04-24T11:54:21;94905.28;;;14.53;55.99
73383;BME280;61600;48.126;11.542;2023-04-24T11:56:49;94898.78;;;14.57;55.18
73383;BME280;61600;48.126;11.542;2023-04-24T11:59:15;94906.22;;;13.76;56.12
73383;BME280;61600;48.126;11.542;2023-04-24T12:01:45;94901.81;;;14.18;55.21
73383;BME280;61600;48.126;11.542;2023-04-24T12:04:12;94899.41;;;14.16;54.79
73383;BME280;61600;48.126;11.542;2023-04-24T12:06:38;94889.16;;;14.51;54.11
73383;BME280;61600;48.126;11.542;2023-04-24T12:09:03;94894.78;;;14.55;52.81
73383;BME280;61600;48.126;11.542;2023-04-24T12:11:30;94888.25;;;14.76;52.06
73383;BME280;61600;48.126;11.542;2023-04-24T12:13:56;94880.06;;;14.68;52.18
73383;BME280;61600;48.126;11.542;2023-04-24T12:16:22;94897.84;;;14.53;53.13
73383;BME280;61600;48.126;11.542;2023-04-24T12:18:51;94890.66;;;14.40;52.40
73383;BME280;61600;48.126;11.542;2023-04-24T12:21:20;94886.19;;;14.73;51.87
73383;BME280;61600;48.126;11.542;2023-04-24T12:23:47;94865.91;;;14.19;51.46
73383;BME280;61600;48.126;11.542;2023-04-24T12:26:20;94897.78;;;14.15;51.61
73383;BME280;61600;48.126;11.542;2023-04-24T12:28:47;94884.56;;;14.72;51.10
73383;BME280;61600;48.126;11.542;2023-04-24T12:31:14;94883.91;;;15.05;50.70
73383;BME280;61600;48.126;11.542;2023-04-24T12:33:40;94882.31;;;15.24;48.89
73383;BME280;61600;48.126;11.542;2023-04-24T12:36:06;94866.28;;;15.14;48.50
73383;BME280;61600;48.126;11.542;2023-04-24T12:38:32;94857.16;;;15.72;47.41
73383;BME280;61600;48.126;11.542;2023-04-24T12:41:10;94864.72;;;15.55;46.81
73383;BME280;61600;48.126;11.542;2023-04-24T12:43:37;94874.13;;;15.66;46.46
73383;BME280;61600;48.126;11.542;2023-04-24T12:46:04;94877.38;;;15.80;44.98
73383;BME280;61600;48.126;11.542;2023-04-24T12:48:30;94860.16;;;15.79;44.42
73383;BME280;61600;48.126;11.542;2023-04-24T12:50:58;94871.53;;;15.48;43.57
73383;BME280;61600;48.126;11.542;2023-04-24T12:53:27;94875.94;;;15.62;43.48
73383;BME280;61600;48.126;11.542;2023-04-24T12:55:55;94863.09;;;15.54;43.17
73383;BME280;61600;48.126;11.542;2023-04-24T12:58:21;94886.16;;;15.73;42.63
73383;BME280;61600;48.126;11.542;2023-04-24T13:00:47;94876.06;;;15.44;47.90
73383;BME280;61600;48.126;11.542;2023-04-24T13:03:13;94890.25;;;15.67;48.62